Time;durP1;ratioP1;P1;durP2;ratioP2;P2;SDS_P1;SDS_P2;PMS_P1;PMS_P2;Temp;Humidity;BMP_temperature;BMP_pressure;BME280_temperature;BME280_humidity;BME280_pressure;Samples;Min_cycle;Max_cycle;Signal;HPM_P1;HPM_P2
2021/08/03 00:01:24;;;;;;;6.63;5.90;;;17.50;99.90;;;;;;6059587;23;20453;-84
2021/08/03 00:04:27;;;;;;;7.40;6.10;;;17.40;99.90;;;;;;6053729;23;20402;-86
2021/08/03 00:07:20;;;;;;;6.80;6.20;;;17.40;99.90;;;;;;6052203;23;20424;-85
2021/08/03 00:10:47;;;;;;;;;;;;;;;;;;;;;
2021/08/03 00:13:59;;;;;;;6.83;5.60;;;17.30;99.90;;;;;;6091725;23;20422;-83
2021/08/03 00:16:52;;;;;;;5.70;5.20;;;17.10;99.90;;;;;;6151341;23;20406;-84
2021/08/03 00:19:37;;;;;;;6.67;6.07;;;17.00;99.90;;;;;;6164416;23;20446;-84
2021/08/03 00:22:22;;;;;;;6.30;5.80;;;17.00;99.90;;;;;;6164881;23;20395;-85
2021/08/03 00:25:31;;;;;;;6.07;5.57;;;17.00;99.90;;;;;;6165393;23;20418;-85
2021/08/03 00:28:33;;;;;;;6.00;5.40;;;16.90;99.90;;;;;;6166890;23;20485;-86
2021/08/03 00:31:39;;;;;;;7.47;6.77;;;16.90;99.90;;;;;;6169883;23;20439;-86
2021/08/03 00:34:44;;;;;;;6.20;5.20;;;16.90;99.90;;;;;;6137521;23;20474;-83
2021/08/03 00:37:38;;;;;;;6.80;6.10;;;16.90;99.90;;;;;;6166723;23;20735;-87
2021/08/03 00:40:55;;;;;;;6.70;6.00;;;16.80;99.90;;;;;;6163964;23;20459;-85
2021/08/03 00:43:36;;;;;;;5.67;5.17;;;16.70;99.90;;;;;;6166962;23;20848;-87
2021/08/03 00:46:42;;;;;;;7.00;5.63;;;16.80;99.90;;;;;;6143506;23;20430;-85
2021/08/03 00:49:43;;;;;;;6.27;5.67;;;16.80;99.90;;;;;;6166093;23;20411;-85
2021/08/03 00:52:35;;;;;;;6.30;5.30;;;16.90;99.90;;;;;;6165542;23;20411;-83
2021/08/03 00:55:22;;;;;;;6.50;5.77;;;17.00;99.90;;;;;;6165025;23;20900;-85
2021/08/03 00:58:18;;;;;;;6.30;5.70;;;17.00;99.90;;;;;;6164824;23;20529;-84
2021/08/03 01:00:57;;;;;;;7.23;6.00;;;16.90;99.90;;;;;;6167361;23;20473;-89
2021/08/03 01:03:47;;;;;;;6.03;5.13;;;16.70;99.90;;;;;;6167879;23;20422;-86
2021/08/03 01:06:57;;;;;;;7.00;6.03;;;16.70;99.90;;;;;;6163877;23;20891;-85
2021/08/03 01:09:54;;;;;;;6.27;5.67;;;16.60;99.90;;;;;;6166174;23;20445;-86
2021/08/03 01:13:16;;;;;;;6.47;5.80;;;16.60;99.90;;;;;;6165100;23;20410;-86
2021/08/03 01:16:32;;;;;;;6.27;5.60;;;16.50;99.90;;;;;;6170726;23;20415;-86
2021/08/03 01:19:49;;;;;;;;;;;;;;;;;;;;;
2021/08/03 01:22:55;;;;;;;6.80;6.10;;;16.70;99.90;;;;;;6153059;23;20372;-89
2021/08/03 01:26:05;;;;;;;7.67;6.87;;;16.70;99.90;;;;;;6151884;23;20416;-90
2021/08/03 01:32:24;;;;;;;8.00;7.00;;;16.70;99.90;;;;;;6102356;23;20760;-87
2021/08/03 01:35:31;;;;;;;;;;;;;;;;;;;;;
2021/08/03 01:38:46;;;;;;;8.50;7.70;;;16.60;99.90;;;;;;6143033;23;20419;-86
2021/08/03 01:41:48;;;;;;;8.73;7.93;;;16.60;99.90;;;;;;6139873;23;20408;-84
2021/08/03 01:44:44;;;;;;;9.80;8.60;;;16.60;99.90;;;;;;6140225;23;20416;-86
2021/08/03 01:47:42;;;;;;;9.00;7.67;;;16.40;99.90;;;;;;6115802;23;20510;-89
2021/08/03 01:51:13;;;;;;;9.80;8.90;;;16.40;99.90;;;;;;6137368;23;20439;-82
2021/08/03 01:54:12;;;;;;;8.83;7.80;;;16.50;99.90;;;;;;6123222;23;20446;-86
2021/08/03 01:57:28;;;;;;;9.17;7.60;;;16.40;99.90;;;;;;6124757;23;20919;-85
2021/08/03 02:00:10;;;;;;;8.50;7.70;;;16.50;99.90;;;;;;6133814;23;20515;-85
2021/08/03 02:02:58;;;;;;;8.47;7.67;;;16.40;99.90;;;;;;6134787;23;20411;-85
2021/08/03 02:05:48;;;;;;;7.80;7.10;;;16.40;99.90;;;;;;6133911;23;20388;-84
2021/08/03 02:08:49;;;;;;;9.60;7.83;;;16.50;99.90;;;;;;6132622;23;20420;-87
2021/08/03 02:14:24;;;;;;;10.03;8.90;;;16.20;99.90;;;;;;6138948;23;20458;-83
2021/08/03 02:17:12;;;;;;;8.30;7.60;;;16.20;99.90;;;;;;6124010;23;20422;-89
2021/08/03 02:20:10;;;;;;;8.57;7.77;;;16.20;99.90;;;;;;6118065;23;20798;-83
2021/08/03 02:23:07;;;;;;;9.77;8.80;;;16.20;99.90;;;;;;6119831;23;20686;-85
2021/08/03 02:25:56;;;;;;;9.83;8.60;;;16.30;99.90;;;;;;6118486;23;20408;-86
2021/08/03 02:28:23;;;;;;;10.43;9.43;;;16.60;99.90;;;;;;6140678;23;20871;-87
2021/08/03 02:31:40;;;;;;;9.30;8.50;;;16.60;99.90;;;;;;6130251;23;20426;-84
2021/08/03 02:35:02;;;;;;;8.83;7.93;;;16.60;99.90;;;;;;6119751;23;20490;-85
2021/08/03 02:38:09;;;;;;;9.83;8.87;;;16.30;99.90;;;;;;6139638;23;20388;-89
2021/08/03 02:40:59;;;;;;;9.53;8.63;;;16.30;99.90;;;;;;6148232;23;20462;-87
2021/08/03 02:44:03;;;;;;;9.97;9.03;;;16.20;99.90;;;;;;6125553;23;20386;-86
2021/08/03 02:47:40;;;;;;;10.47;9.23;;;16.20;99.90;;;;;;6124738;23;20478;-87
2021/08/03 02:50:28;;;;;;;9.50;8.60;;;16.30;99.90;;;;;;6119964;23;20506;-88
2021/08/03 02:53:40;;;;;;;10.07;8.97;;;16.20;99.90;;;;;;6116276;23;20418;-87
2021/08/03 02:56:39;;;;;;;9.77;8.83;;;16.20;99.90;;;;;;6118063;23;20428;-86
2021/08/03 02:59:36;;;;;;;;;;;;;;;;;;;;;
2021/08/03 03:02:49;;;;;;;9.97;8.00;;;16.20;99.90;;;;;;6092123;23;20403;-84
2021/08/03 03:06:12;;;;;;;8.60;7.90;;;16.20;99.90;;;;;;6115413;23;20399;-87
2021/08/03 03:09:01;;;;;;;10.40;7.80;;;16.20;99.90;;;;;;6116452;23;20419;-86
2021/08/03 03:12:21;;;;;;;10.87;7.23;;;16.10;99.90;;;;;;6001918;23;20872;-84
2021/08/03 03:15:30;;;;;;;10.30;9.00;;;16.20;99.90;;;;;;5983036;23;20406;-86
2021/08/03 03:18:27;;;;;;;9.23;8.10;;;16.30;99.90;;;;;;6004153;23;20423;-84
2021/08/03 03:21:19;;;;;;;8.43;7.53;;;16.50;99.90;;;;;;6001069;23;20450;-87
2021/08/03 03:24:56;;;;;;;9.43;8.53;;;16.40;99.90;;;;;;6005486;23;21014;-84
2021/08/03 03:31:01;;;;;;;8.67;7.87;;;16.20;99.90;;;;;;6011374;23;20468;-87
2021/08/03 03:37:43;;;;;;;9.53;8.67;;;16.10;99.90;;;;;;5913326;24;20431;-88
2021/08/03 03:48:15;;;;;;;9.60;8.70;;;16.20;99.90;;;;;;5942821;24;20401;-87
2021/08/03 03:51:37;;;;;;;9.00;8.07;;;16.10;99.90;;;;;;5993142;24;20479;-86
2021/08/03 03:54:45;;;;;;;9.17;8.23;;;16.20;99.90;;;;;;5969851;24;20490;-84
2021/08/03 03:57:45;;;;;;;9.17;8.37;;;16.20;99.90;;;;;;5967640;24;20508;-84
2021/08/03 04:00:59;;;;;;;10.83;9.03;;;16.00;99.90;;;;;;5969324;23;20448;-87
2021/08/03 04:04:26;;;;;;;9.50;7.73;;;16.00;99.90;;;;;;6002390;23;20449;-85
2021/08/03 04:07:34;;;;;;;10.93;8.33;;;15.90;99.90;;;;;;5997235;23;20437;-89
2021/08/03 04:10:35;;;;;;;9.33;8.20;;;15.90;99.90;;;;;;6024035;23;20446;-90
2021/08/03 04:16:46;;;;;;;9.77;8.80;;;16.20;99.90;;;;;;6148367;23;20403;-86
2021/08/03 04:25:52;;;;;;;9.97;9.07;;;15.90;99.90;;;;;;6123083;23;20499;-91
2021/08/03 04:28:38;;;;;;;9.57;8.60;;;16.00;99.90;;;;;;6114635;23;20865;-87
2021/08/03 04:32:03;;;;;;;9.03;8.23;;;15.80;99.90;;;;;;6148033;23;20459;-86
2021/08/03 04:35:22;;;;;;;9.97;9.13;;;15.80;99.90;;;;;;6172486;23;20403;-87
2021/08/03 04:38:39;;;;;;;11.60;8.73;;;15.90;99.90;;;;;;6146231;23;20395;-86
2021/08/03 04:42:08;;;;;;;9.30;8.47;;;15.90;99.90;;;;;;6133498;23;20468;-87
2021/08/03 04:45:13;;;;;;;;;;;;;;;;;;;;;
2021/08/03 04:51:20;;;;;;;8.90;8.00;;;16.10;99.90;;;;;;6142451;23;20438;-86
2021/08/03 04:55:01;;;;;;;;;;;;;;;;;;;;;
2021/08/03 05:01:53;;;;;;;8.57;7.67;;;16.10;99.90;;;;;;6114377;23;20461;-85
2021/08/03 05:05:10;;;;;;;10.03;9.03;;;15.90;99.90;;;;;;6119770;23;20399;-84
2021/08/03 05:08:19;;;;;;;8.90;8.10;;;16.10;99.90;;;;;;6081231;23;20420;-84
2021/08/03 05:11:19;;;;;;;9.87;8.77;;;16.10;99.90;;;;;;6113296;23;20435;-84
2021/08/03 05:15:00;;;;;;;9.03;8.07;;;16.10;99.90;;;;;;6118966;23;20412;-86
2021/08/03 05:18:42;;;;;;;9.17;8.27;;;16.00;99.90;;;;;;6099969;23;20400;-84
2021/08/03 05:28:29;;;;;;;11.17;10.07;;;16.20;99.90;;;;;;6167449;23;20438;-86
2021/08/03 05:31:45;;;;;;;9.60;8.60;;;16.30;99.90;;;;;;6152608;23;20437;-87
2021/08/03 05:34:46;;;;;;;11.40;10.20;;;16.10;99.90;;;;;;6156661;23;20394;-86
2021/08/03 05:38:01;;;;;;;12.53;9.07;;;16.00;99.90;;;;;;6157804;23;20406;-85
2021/08/03 05:41:08;;;;;;;10.57;9.30;;;16.00;99.90;;;;;;6181023;23;20443;-85
2021/08/03 05:47:25;;;;;;;10.60;9.60;;;16.20;99.90;;;;;;6181069;23;20398;-84
2021/08/03 05:50:12;;;;;;;10.77;9.40;;;16.20;99.90;;;;;;6091024;23;20431;-85
2021/08/03 05:53:06;;;;;;;10.30;9.30;;;16.20;99.90;;;;;;6181207;23;20473;-85
2021/08/03 05:59:37;;;;;;;10.90;9.80;;;16.40;99.90;;;;;;6181176;23;20509;-85
2021/08/03 06:02:53;;;;;;;11.60;9.63;;;16.50;99.90;;;;;;6176233;23;20439;-84
2021/08/03 06:08:40;;;;;;;11.57;10.43;;;16.80;99.90;;;;;;6140281;23;20443;-84
2021/08/03 06:11:50;;;;;;;11.03;9.40;;;16.60;99.90;;;;;;6151424;23;20447;-84
2021/08/03 06:14:51;;;;;;;9.93;8.90;;;16.50;99.90;;;;;;6129448;23;20383;-87
2021/08/03 06:18:20;;;;;;;11.00;9.80;;;16.70;99.90;;;;;;6130281;23;20387;-85
2021/08/03 06:24:26;;;;;;;14.93;10.27;;;16.60;99.90;;;;;;6176445;23;20466;-85
2021/08/03 06:27:47;;;;;;;10.27;9.17;;;16.60;99.90;;;;;;6071460;23;20469;-85
2021/08/03 06:30:32;;;;;;;11.50;10.40;;;16.40;99.90;;;;;;6084677;23;20421;-85
2021/08/03 06:33:28;;;;;;;11.90;9.50;;;16.60;99.90;;;;;;6084162;23;20436;-85
2021/08/03 06:36:35;;;;;;;10.17;9.30;;;16.70;99.90;;;;;;6112926;23;20400;-84
2021/08/03 06:39:22;;;;;;;10.00;9.00;;;16.60;99.90;;;;;;6118650;23;20451;-86
2021/08/03 06:50:03;;;;;;;9.73;8.83;;;16.50;99.90;;;;;;6058515;23;20640;-85
2021/08/03 06:52:56;;;;;;;9.20;8.50;;;16.50;99.90;;;;;;6097874;23;20436;-86
2021/08/03 06:55:49;;;;;;;10.00;8.83;;;16.60;99.90;;;;;;6077375;23;20409;-87
2021/08/03 06:59:04;;;;;;;10.80;9.57;;;17.00;99.90;;;;;;6131025;23;20403;-86
2021/08/03 07:01:54;;;;;;;12.13;8.13;;;17.00;99.90;;;;;;6152469;23;20460;-86
2021/08/03 07:04:56;;;;;;;11.37;9.07;;;17.00;99.90;;;;;;6180860;23;20414;-85
2021/08/03 07:07:55;;;;;;;9.83;8.83;;;17.20;99.90;;;;;;6180655;23;20438;-87
2021/08/03 07:10:38;;;;;;;9.60;8.53;;;17.30;99.90;;;;;;6180882;23;20486;-86
2021/08/03 07:13:57;;;;;;;11.40;10.30;;;17.20;99.90;;;;;;6140839;23;20399;-85
2021/08/03 07:17:05;;;;;;;11.60;10.40;;;17.20;99.90;;;;;;6056874;23;20377;-85
2021/08/03 07:20:02;;;;;;;9.17;8.27;;;17.20;99.90;;;;;;6057906;23;20445;-86
2021/08/03 07:22:59;;;;;;;10.40;9.20;;;17.00;99.90;;;;;;6063804;23;20467;-85
2021/08/03 07:25:44;;;;;;;10.90;9.93;;;16.80;99.90;;;;;;6065826;23;20424;-86
2021/08/03 07:31:50;;;;;;;9.17;8.27;;;17.20;99.90;;;;;;6052595;23;20421;-87
2021/08/03 07:34:28;;;;;;;9.43;8.63;;;17.00;99.90;;;;;;6055578;23;20417;-87
2021/08/03 07:37:39;;;;;;;9.67;8.73;;;17.10;99.90;;;;;;6054655;23;20398;-83
2021/08/03 07:40:50;;;;;;;10.10;8.60;;;17.20;99.90;;;;;;6076716;23;20536;-85
2021/08/03 07:44:03;;;;;;;11.67;9.50;;;17.30;99.90;;;;;;6038980;23;20410;-86
2021/08/03 07:47:04;;;;;;;9.53;8.53;;;17.40;99.90;;;;;;6052692;23;20458;-84
2021/08/03 07:49:55;;;;;;;11.63;9.67;;;17.40;99.90;;;;;;6035461;23;20454;-86
2021/08/03 07:53:26;;;;;;;10.27;9.20;;;17.40;99.90;;;;;;6091749;23;20418;-86
2021/08/03 07:56:10;;;;;;;10.47;9.03;;;17.40;99.90;;;;;;6047157;23;20405;-85
2021/08/03 07:59:38;;;;;;;9.90;8.90;;;17.40;99.90;;;;;;6163666;23;20449;-86
2021/08/03 08:06:56;;;;;;;;;;;;;;;;;;;;;
2021/08/03 08:10:13;;;;;;;9.97;8.70;;;17.50;99.90;;;;;;6168092;23;20430;-85
2021/08/03 08:13:15;;;;;;;9.37;8.47;;;17.50;99.90;;;;;;6166562;23;20462;-85
2021/08/03 08:16:02;;;;;;;10.80;9.70;;;17.50;99.90;;;;;;6167588;23;20481;-86
2021/08/03 08:19:16;;;;;;;9.20;8.30;;;17.40;99.90;;;;;;6168215;23;20495;-87
2021/08/03 08:22:21;;;;;;;11.87;10.80;;;17.40;99.90;;;;;;6163736;23;20450;-86
2021/08/03 08:25:48;;;;;;;10.20;9.27;;;17.30;99.90;;;;;;6050657;23;20394;-84
2021/08/03 08:29:39;;;;;;;10.77;9.80;;;17.40;99.90;;;;;;6078202;23;20457;-85
2021/08/03 08:32:29;;;;;;;8.50;7.60;;;17.40;99.90;;;;;;6069232;23;20401;-84
2021/08/03 08:50:21;;;;;;;9.33;8.00;;;17.30;99.90;;;;;;6141124;23;20495;-84
2021/08/03 08:53:44;;;;;;;8.67;7.97;;;17.20;99.90;;;;;;6122074;23;20447;-85
2021/08/03 09:00:19;;;;;;;11.43;9.07;;;17.10;99.90;;;;;;6053092;23;20413;-86
2021/08/03 09:03:11;;;;;;;9.63;8.63;;;17.10;99.90;;;;;;6105095;23;20594;-86
2021/08/03 09:06:10;;;;;;;9.60;8.70;;;17.10;99.90;;;;;;6116491;23;20396;-86
2021/08/03 09:12:31;;;;;;;9.30;8.33;;;17.00;99.90;;;;;;6036366;23;20417;-84
2021/08/03 09:15:29;;;;;;;9.40;7.63;;;17.10;99.90;;;;;;6137955;23;20447;-86
2021/08/03 09:18:46;;;;;;;10.43;9.43;;;17.20;99.90;;;;;;6114048;23;20415;-86
2021/08/03 09:22:15;;;;;;;10.00;9.07;;;16.90;99.90;;;;;;6117783;23;20515;-85
2021/08/03 09:25:50;;;;;;;9.93;9.07;;;16.90;99.90;;;;;;5998375;23;20884;-86
2021/08/03 09:28:36;;;;;;;10.90;9.80;;;16.70;99.90;;;;;;6115902;23;20451;-86
2021/08/03 09:31:51;;;;;;;11.60;10.20;;;17.00;99.90;;;;;;6106104;23;20478;-86
2021/08/03 09:35:40;;;;;;;10.20;9.23;;;17.10;99.90;;;;;;6138271;23;20411;-86
2021/08/03 09:38:59;;;;;;;9.17;7.73;;;17.10;99.90;;;;;;6042021;23;20429;-85
2021/08/03 09:41:59;;;;;;;7.67;6.97;;;17.10;99.90;;;;;;6040174;23;20470;-85
2021/08/03 09:45:34;;;;;;;7.90;7.30;;;17.10;99.90;;;;;;6107715;23;20829;-86
2021/08/03 09:48:34;;;;;;;8.90;8.00;;;17.00;99.90;;;;;;6113186;23;20416;-86
2021/08/03 09:58:31;;;;;;;;;;;;;;;;;;;;;
2021/08/03 10:02:01;;;;;;;8.37;7.67;;;17.20;99.90;;;;;;6133520;23;20468;-86
2021/08/03 10:04:52;;;;;;;8.53;7.83;;;17.20;99.90;;;;;;6102151;23;20459;-86
2021/08/03 10:07:35;;;;;;;8.53;7.83;;;17.40;99.90;;;;;;6112446;23;20410;-86
2021/08/03 10:11:02;;;;;;;9.27;7.90;;;17.70;99.90;;;;;;6115753;23;20435;-85
2021/08/03 10:14:17;;;;;;;8.63;7.93;;;17.60;99.90;;;;;;6118049;23;20415;-85
2021/08/03 10:17:22;;;;;;;9.33;8.47;;;17.60;99.90;;;;;;6108570;23;20408;-86
2021/08/03 10:20:52;;;;;;;8.50;7.80;;;17.60;99.90;;;;;;6118900;23;20518;-84
2021/08/03 10:24:17;;;;;;;9.00;7.80;;;17.50;99.90;;;;;;6156705;23;20736;-85
2021/08/03 10:27:43;;;;;;;8.90;8.00;;;17.50;99.90;;;;;;6159419;23;20466;-85
2021/08/03 10:31:04;;;;;;;8.67;7.80;;;17.70;99.90;;;;;;6170679;23;20414;-85
2021/08/03 10:33:50;;;;;;;8.73;7.87;;;17.70;99.90;;;;;;6168990;23;20997;-86
2021/08/03 10:37:05;;;;;;;8.80;7.80;;;17.70;99.90;;;;;;6168110;23;20422;-85
2021/08/03 10:40:42;;;;;;;9.83;9.03;;;17.80;99.90;;;;;;6190257;23;20474;-85
2021/08/03 10:43:48;;;;;;;9.47;8.67;;;17.80;99.90;;;;;;6182326;23;20406;-85
2021/08/03 10:46:50;;;;;;;9.27;8.40;;;17.70;99.90;;;;;;6167168;23;20461;-85
2021/08/03 10:50:28;;;;;;;8.60;7.80;;;17.60;99.90;;;;;;6087089;23;20461;-86
2021/08/03 10:53:24;;;;;;;;;;;;;;;;;;;;;
2021/08/03 10:57:26;;;;;;;9.27;8.47;;;17.80;99.90;;;;;;6156696;23;20470;-87
2021/08/03 11:00:39;;;;;;;8.20;7.50;;;18.00;99.90;;;;;;6167607;23;21021;-86
2021/08/03 11:04:39;;;;;;;9.20;8.40;;;18.10;99.90;;;;;;6167017;23;20474;-86
2021/08/03 11:07:30;;;;;;;11.70;8.53;;;18.10;99.90;;;;;;6165976;23;20418;-87
2021/08/03 11:10:32;;;;;;;8.37;7.67;;;18.50;99.90;;;;;;6169192;23;20534;-87
2021/08/03 11:13:38;;;;;;;9.20;8.27;;;18.80;99.90;;;;;;6165793;23;20470;-87
2021/08/03 11:16:34;;;;;;;7.40;6.80;;;18.80;99.90;;;;;;6148891;23;20425;-86
2021/08/03 11:19:32;;;;;;;8.40;7.70;;;18.80;99.90;;;;;;6183240;23;20410;-83
2021/08/03 11:22:33;;;;;;;7.20;6.50;;;19.00;99.90;;;;;;6181951;23;20445;-85
2021/08/03 11:25:37;;;;;;;7.47;6.77;;;19.00;99.90;;;;;;6181699;23;20419;-83
2021/08/03 11:28:34;;;;;;;7.60;6.90;;;19.10;99.90;;;;;;6177284;23;20418;-86
2021/08/03 11:32:00;;;;;;;8.20;7.20;;;19.20;99.90;;;;;;6169036;23;20972;-86
2021/08/03 11:35:10;;;;;;;7.10;6.43;;;19.30;99.90;;;;;;6168983;23;20429;-85
2021/08/03 11:37:54;;;;;;;6.10;5.50;;;19.40;99.90;;;;;;6169708;23;20430;-86
2021/08/03 11:40:42;;;;;;;5.60;5.20;;;19.60;99.90;;;;;;6173008;23;20442;-85
2021/08/03 11:43:26;;;;;;;5.37;4.77;;;19.90;99.90;;;;;;6174615;23;20434;-84
2021/08/03 11:46:36;;;;;;;5.07;4.67;;;19.90;99.90;;;;;;6157589;23;20410;-85
2021/08/03 11:49:57;;;;;;;5.03;4.63;;;19.90;99.90;;;;;;6167289;23;20414;-86
2021/08/03 11:53:02;;;;;;;5.00;4.60;;;20.00;99.90;;;;;;6164468;23;20425;-86
2021/08/03 11:55:53;;;;;;;5.17;4.77;;;19.90;99.90;;;;;;6159765;23;20410;-85
2021/08/03 11:58:49;;;;;;;7.77;6.13;;;19.70;99.90;;;;;;6165105;23;20427;-86
2021/08/03 12:02:08;;;;;;;4.43;4.10;;;19.80;99.90;;;;;;6162360;23;20431;-85
2021/08/03 12:05:14;;;;;;;5.53;5.10;;;19.90;99.90;;;;;;6153943;23;20708;-85
2021/08/03 12:08:13;;;;;;;5.77;5.30;;;19.90;99.90;;;;;;6167048;23;20421;-84
2021/08/03 12:11:11;;;;;;;5.60;5.20;;;19.90;99.90;;;;;;6166978;23;20446;-85
2021/08/03 12:14:23;;;;;;;5.70;4.60;;;20.20;99.90;;;;;;6167267;23;20450;-86
2021/08/03 12:17:33;;;;;;;4.70;4.30;;;20.30;99.90;;;;;;6166073;23;20419;-86
2021/08/03 12:21:03;;;;;;;3.73;3.40;;;20.70;99.90;;;;;;6122919;23;20818;-85
2021/08/03 12:24:22;;;;;;;3.37;3.17;;;21.10;99.90;;;;;;6163790;23;20951;-85
2021/08/03 12:27:48;;;;;;;5.07;3.53;;;22.00;99.10;;;;;;6163792;23;20411;-88
2021/08/03 12:30:59;;;;;;;3.50;3.20;;;22.00;98.10;;;;;;6185367;23;20466;-86
2021/08/03 12:37:36;;;;;;;5.30;3.60;;;21.80;98.20;;;;;;6140998;23;20387;-86
2021/08/03 12:41:16;;;;;;;5.43;5.03;;;22.00;98.60;;;;;;6164755;23;20435;-86
2021/08/03 12:44:25;;;;;;;3.60;3.40;;;21.70;97.60;;;;;;6080817;23;20918;-86
2021/08/03 12:48:01;;;;;;;3.80;3.50;;;21.40;99.00;;;;;;6163836;23;20477;-86
2021/08/03 12:51:00;;;;;;;3.40;2.70;;;21.60;98.70;;;;;;6154382;23;20494;-86
2021/08/03 12:54:11;;;;;;;2.67;2.50;;;22.30;98.10;;;;;;6163789;23;20454;-86
2021/08/03 12:57:23;;;;;;;3.07;2.87;;;23.20;96.60;;;;;;6162418;23;20407;-85
2021/08/03 13:00:23;;;;;;;2.83;2.63;;;23.10;95.50;;;;;;6156926;23;20422;-87
2021/08/03 13:03:33;;;;;;;2.60;2.40;;;22.70;96.10;;;;;;6168749;23;20621;-85
2021/08/03 13:06:12;;;;;;;3.47;3.10;;;22.50;96.10;;;;;;6170733;23;20438;-86
2021/08/03 13:09:11;;;;;;;2.80;2.60;;;22.50;96.30;;;;;;6171060;23;20414;-85
2021/08/03 13:12:19;;;;;;;;;;;;;;;;;;;;;
2021/08/03 13:15:07;;;;;;;3.00;2.80;;;22.30;95.30;;;;;;6167515;23;20489;-86
2021/08/03 13:17:52;;;;;;;2.90;2.70;;;22.20;96.20;;;;;;6140013;23;20411;-86
2021/08/03 13:23:59;;;;;;;3.33;3.10;;;21.70;97.30;;;;;;6129939;23;20442;-85
2021/08/03 13:26:59;;;;;;;3.00;2.80;;;21.60;97.70;;;;;;6160895;23;20743;-85
2021/08/03 13:33:09;;;;;;;3.00;2.80;;;21.20;98.50;;;;;;6166272;23;20407;-86
2021/08/03 13:36:12;;;;;;;2.97;2.77;;;20.90;99.30;;;;;;6163992;23;21051;-86
2021/08/03 13:39:03;;;;;;;3.00;2.87;;;21.20;99.30;;;;;;6165422;23;20861;-87
2021/08/03 13:41:48;;;;;;;3.47;3.23;;;21.40;99.10;;;;;;6169076;23;20443;-84
2021/08/03 13:44:47;;;;;;;3.00;2.80;;;21.50;98.70;;;;;;6168942;23;20478;-86
2021/08/03 13:47:39;;;;;;;2.87;2.67;;;21.60;98.60;;;;;;6168825;23;20422;-84
2021/08/03 13:50:51;;;;;;;2.57;2.47;;;21.40;98.30;;;;;;6164122;23;20869;-86
2021/08/03 13:53:28;;;;;;;2.73;2.53;;;21.60;98.40;;;;;;6169120;23;20423;-85
2021/08/03 13:56:49;;;;;;;2.90;2.70;;;21.60;97.80;;;;;;6174633;23;20434;-84
2021/08/03 13:59:31;;;;;;;3.27;2.97;;;21.60;97.50;;;;;;6170265;23;20494;-83
2021/08/03 14:02:05;;;;;;;2.70;2.50;;;21.30;98.40;;;;;;6173652;23;20518;-85
2021/08/03 14:04:38;;;;;;;2.40;2.20;;;21.50;98.20;;;;;;6173623;23;20478;-84
2021/08/03 14:07:52;;;;;;;;;;;;;;;;;;;;;
2021/08/03 14:10:50;;;;;;;2.00;1.90;;;20.80;99.90;;;;;;6172158;23;20470;-86
2021/08/03 14:13:34;;;;;;;1.90;1.80;;;20.80;99.90;;;;;;6174456;23;20426;-86
2021/08/03 14:19:31;;;;;;;3.40;1.70;;;20.40;99.90;;;;;;6173585;23;20548;-84
2021/08/03 14:22:14;;;;;;;1.30;1.20;;;20.30;99.90;;;;;;6171129;23;20430;-86
2021/08/03 14:25:01;;;;;;;2.80;1.50;;;20.00;99.90;;;;;;6166938;23;20419;-87
2021/08/03 14:28:07;;;;;;;;;;;;;;;;;;;;;
2021/08/03 14:31:02;;;;;;;2.37;1.60;;;19.80;99.90;;;;;;6148767;23;20970;-86
2021/08/03 14:33:39;;;;;;;1.60;1.50;;;19.80;99.90;;;;;;6165124;23;20423;-86
2021/08/03 14:36:57;;;;;;;1.93;1.67;;;19.90;99.90;;;;;;6047233;23;20490;-86
2021/08/03 14:39:48;;;;;;;6.40;2.37;;;19.80;99.90;;;;;;6047295;23;20427;-86
2021/08/03 14:42:51;;;;;;;2.70;2.30;;;19.50;99.90;;;;;;6027111;23;20450;-86
2021/08/03 14:46:24;;;;;;;2.87;2.40;;;19.40;99.90;;;;;;6041726;23;20482;-86
2021/08/03 14:52:03;;;;;;;3.10;2.27;;;19.40;99.90;;;;;;6159089;23;20454;-85
2021/08/03 14:55:32;;;;;;;2.20;2.00;;;19.50;99.90;;;;;;6133053;23;20403;-86
2021/08/03 14:58:37;;;;;;;3.10;2.07;;;19.50;99.90;;;;;;6142564;23;20395;-86
2021/08/03 15:08:28;;;;;;;3.07;2.80;;;19.60;99.90;;;;;;6046830;23;20403;-86
2021/08/03 15:11:29;;;;;;;2.07;1.97;;;19.40;99.90;;;;;;6047924;23;20536;-86
2021/08/03 15:14:51;;;;;;;2.13;2.03;;;19.50;99.90;;;;;;6049053;23;20451;-85
2021/08/03 15:22:05;;;;;;;;;;;;;;;;;;;;;
2021/08/03 15:24:42;;;;;;;;;;;;;;;;;;;;;
2021/08/03 15:27:28;;;;;;;3.57;2.30;;;18.90;99.90;;;;;;6042015;23;20406;-84
2021/08/03 15:30:26;;;;;;;2.63;2.17;;;18.90;99.90;;;;;;6028979;23;20446;-86
2021/08/03 15:33:08;;;;;;;2.10;1.93;;;19.40;99.90;;;;;;6027135;23;20889;-87
2021/08/03 15:36:11;;;;;;;2.87;2.30;;;19.30;99.90;;;;;;6102855;23;20451;-87
2021/08/03 15:39:10;;;;;;;2.70;2.50;;;19.50;99.90;;;;;;6129951;23;20472;-86
2021/08/03 15:41:57;;;;;;;2.87;2.50;;;19.70;99.90;;;;;;6018939;23;20428;-87
2021/08/03 15:44:36;;;;;;;2.70;2.50;;;19.90;99.90;;;;;;5999273;23;20430;-85
2021/08/03 15:47:17;;;;;;;2.20;2.10;;;20.10;99.90;;;;;;6019176;23;20438;-85
2021/08/03 15:53:43;;;;;;;5.07;2.40;;;20.20;99.90;;;;;;6004911;23;20455;-84
2021/08/03 15:56:36;;;;;;;3.40;2.00;;;20.30;99.90;;;;;;5995063;23;20415;-84
2021/08/03 15:59:41;;;;;;;1.80;1.70;;;20.00;99.90;;;;;;5996334;23;20404;-83
2021/08/03 16:02:18;;;;;;;1.80;1.23;;;19.80;99.90;;;;;;5993262;23;20476;-84
2021/08/03 16:04:59;;;;;;;1.53;1.10;;;19.70;99.90;;;;;;5986536;23;20408;-85
2021/08/03 16:08:13;;;;;;;2.83;1.60;;;19.70;99.90;;;;;;6016394;23;20412;-86
2021/08/03 16:11:12;;;;;;;1.63;1.33;;;19.80;99.90;;;;;;5995544;23;20495;-84
2021/08/03 16:13:51;;;;;;;2.30;1.23;;;19.70;99.90;;;;;;6094978;23;20426;-85
2021/08/03 16:16:38;;;;;;;1.40;1.30;;;19.60;99.90;;;;;;6134700;23;20415;-85
2021/08/03 16:19:48;;;;;;;1.93;1.40;;;19.70;99.90;;;;;;6147506;23;20387;-85
2021/08/03 16:23:09;;;;;;;1.60;1.37;;;19.60;99.90;;;;;;6149794;23;20475;-85
2021/08/03 16:26:34;;;;;;;;;;;;;;;;;;;;;
2021/08/03 16:29:18;;;;;;;2.23;1.90;;;19.40;99.90;;;;;;6151993;23;20400;-85
2021/08/03 16:32:16;;;;;;;;;;;;;;;;;;;;;
2021/08/03 16:35:29;;;;;;;2.20;1.40;;;19.30;99.90;;;;;;6145781;23;20399;-86
2021/08/03 16:38:46;;;;;;;2.33;2.13;;;19.20;99.90;;;;;;6138576;23;20431;-85
2021/08/03 16:41:52;;;;;;;1.37;1.27;;;19.20;99.90;;;;;;6155441;23;21102;-86
2021/08/03 16:44:38;;;;;;;1.77;1.67;;;19.20;99.90;;;;;;6135283;23;20533;-86
2021/08/03 16:47:35;;;;;;;1.13;1.00;;;19.40;99.90;;;;;;6143102;23;20415;-86
2021/08/03 16:53:37;;;;;;;1.97;1.83;;;19.90;99.90;;;;;;6136826;23;20408;-84
2021/08/03 16:56:47;;;;;;;1.73;1.63;;;20.00;99.90;;;;;;6116044;23;20412;-85
2021/08/03 16:59:46;;;;;;;1.50;1.40;;;20.00;99.90;;;;;;6141226;23;20439;-85
2021/08/03 17:02:59;;;;;;;3.50;3.20;;;19.80;99.90;;;;;;6139841;23;20479;-87
2021/08/03 17:05:47;;;;;;;6.20;5.70;;;19.60;99.90;;;;;;6109356;23;20411;-86
2021/08/03 17:09:00;;;;;;;3.67;3.40;;;19.70;99.90;;;;;;6104123;23;20427;-87
2021/08/03 17:12:45;;;;;;;4.27;3.67;;;20.00;99.90;;;;;;6112182;23;20408;-87
2021/08/03 17:15:55;;;;;;;;;;;;;;;;;;;;;
2021/08/03 17:19:16;;;;;;;2.53;2.20;;;19.90;99.90;;;;;;6134672;23;20384;-86
2021/08/03 17:26:16;;;;;;;2.30;2.10;;;20.40;99.90;;;;;;6141699;23;20456;-85
2021/08/03 17:30:03;;;;;;;2.53;2.33;;;20.40;99.90;;;;;;6079853;23;20412;-86
2021/08/03 17:33:31;;;;;;;3.83;3.43;;;20.10;99.90;;;;;;6106499;23;20408;-87
2021/08/03 17:36:28;;;;;;;13.80;12.40;;;19.70;99.90;;;;;;6093057;23;20399;-87
2021/08/03 17:39:39;;;;;;;5.63;4.00;;;19.50;99.90;;;;;;6101394;23;20571;-86
2021/08/03 17:42:36;;;;;;;3.73;3.40;;;19.40;99.90;;;;;;6110362;23;20422;-86
2021/08/03 17:45:34;;;;;;;2.57;2.37;;;19.40;99.90;;;;;;6107592;23;20801;-86
2021/08/03 17:48:56;;;;;;;5.33;4.93;;;19.40;99.90;;;;;;6133985;23;20430;-86
2021/08/03 17:51:55;;;;;;;5.50;5.00;;;19.40;99.90;;;;;;6109554;23;20432;-86
2021/08/03 17:55:02;;;;;;;3.90;3.50;;;19.40;99.90;;;;;;6132388;23;20438;-86
2021/08/03 17:57:56;;;;;;;2.70;2.50;;;19.40;99.90;;;;;;6129320;23;20410;-86
2021/08/03 18:00:51;;;;;;;4.23;3.93;;;19.40;99.90;;;;;;6134535;23;20942;-85
2021/08/03 18:03:41;;;;;;;4.83;4.43;;;19.30;99.90;;;;;;6135208;23;20471;-85
2021/08/03 18:06:28;;;;;;;2.50;2.30;;;19.30;99.90;;;;;;6134869;23;20412;-84
2021/08/03 18:09:37;;;;;;;2.73;2.37;;;19.20;99.90;;;;;;6135600;23;20419;-85
2021/08/03 18:12:38;;;;;;;;;;;;;;;;;;;;;
2021/08/03 18:15:35;;;;;;;2.90;2.37;;;19.20;99.90;;;;;;6135539;23;20419;-85
2021/08/03 18:18:24;;;;;;;11.70;10.73;;;19.20;99.90;;;;;;6106857;23;20408;-85
2021/08/03 18:21:39;;;;;;;3.30;3.07;;;19.20;99.90;;;;;;6132255;23;20419;-86
2021/08/03 18:25:01;;;;;;;;;;;;;;;;;;;;;
2021/08/03 18:28:31;;;;;;;4.03;3.73;;;19.30;99.90;;;;;;6141616;23;20461;-85
2021/08/03 18:31:55;;;;;;;3.03;2.80;;;19.20;99.90;;;;;;6030542;23;20426;-83
2021/08/03 18:42:25;;;;;;;2.80;2.60;;;19.80;99.90;;;;;;5972598;24;20422;-85
2021/08/03 18:45:10;;;;;;;2.80;2.50;;;19.50;99.90;;;;;;5978297;24;20401;-84
2021/08/03 18:48:36;;;;;;;5.73;2.90;;;19.40;99.90;;;;;;5960520;24;20438;-85
2021/08/03 18:52:07;;;;;;;;;;;;;;;;;;;;;